sensor_id;sensor_type;location;lat;lon;timestamp;P1;durP1;ratioP1;P2;durP2;ratioP2
5014;SDS011;2526;51.060;4.228;2023-08-12T00:02:33;3.90;;;2.60;;
5014;SDS011;2526;51.060;4.228;2023-08-12T00:04:59;7.78;;;2.83;;
5014;SDS011;2526;51.060;4.228;2023-08-12T00:07:24;5.95;;;3.40;;
5014;SDS011;2526;51.060;4.228;2023-08-12T00:09:50;8.40;;;3.35;;
5014;SDS011;2526;51.060;4.228;2023-08-12T00:12:15;7.53;;;2.33;;
5014;SDS011;2526;51.060;4.228;2023-08-12T00:14:40;8.02;;;3.65;;
5014;SDS011;2526;51.060;4.228;2023-08-12T00:17:06;4.93;;;3.85;;
5014;SDS011;2526;51.060;4.228;2023-08-12T00:19:31;5.47;;;3.80;;
5014;SDS011;2526;51.060;4.228;2023-08-12T00:21:57;5.97;;;2.65;;
5014;SDS011;2526;51.060;4.228;2023-08-12T00:24:22;5.63;;;3.33;;
5014;SDS011;2526;51.060;4.228;2023-08-12T00:26:48;7.93;;;3.13;;
5014;SDS011;2526;51.060;4.228;2023-08-12T00:29:14;10.18;;;3.60;;
5014;SDS011;2526;51.060;4.228;2023-08-12T00:31:40;5.20;;;2.75;;
5014;SDS011;2526;51.060;4.228;2023-08-12T00:34:05;4.65;;;3.28;;
5014;SDS011;2526;51.060;4.228;2023-08-12T00:36:30;6.80;;;3.50;;
5014;SDS011;2526;51.060;4.228;2023-08-12T00:38:56;7.53;;;3.10;;
5014;SDS011;2526;51.060;4.228;2023-08-12T00:41:21;7.00;;;2.95;;
5014;SDS011;2526;51.060;4.228;2023-08-12T00:43:47;4.63;;;2.53;;
5014;SDS011;2526;51.060;4.228;2023-08-12T00:46:12;4.78;;;2.85;;
5014;SDS011;2526;51.060;4.228;2023-08-12T00:48:38;6.85;;;2.90;;
5014;SDS011;2526;51.060;4.228;2023-08-12T00:51:03;3.88;;;2.38;;
5014;SDS011;2526;51.060;4.228;2023-08-12T00:53:29;5.13;;;2.33;;
5014;SDS011;2526;51.060;4.228;2023-08-12T00:55:54;5.47;;;2.50;;
5014;SDS011;2526;51.060;4.228;2023-08-12T00:58:20;5.85;;;3.28;;
5014;SDS011;2526;51.060;4.228;2023-08-12T01:00:46;7.97;;;3.17;;
5014;SDS011;2526;51.060;4.228;2023-08-12T01:03:11;3.75;;;2.97;;
5014;SDS011;2526;51.060;4.228;2023-08-12T01:05:37;4.63;;;2.35;;
5014;SDS011;2526;51.060;4.228;2023-08-12T01:08:02;8.82;;;2.63;;
5014;SDS011;2526;51.060;4.228;2023-08-12T01:10:29;3.90;;;2.67;;
5014;SDS011;2526;51.060;4.228;2023-08-12T01:15:32;6.40;;;2.70;;
5014;SDS011;2526;51.060;4.228;2023-08-12T01:17:58;8.75;;;2.97;;
5014;SDS011;2526;51.060;4.228;2023-08-12T01:20:25;4.25;;;2.00;;
5014;SDS011;2526;51.060;4.228;2023-08-12T01:22:59;12.98;;;3.08;;
5014;SDS011;2526;51.060;4.228;2023-08-12T01:25:26;8.52;;;3.05;;
5014;SDS011;2526;51.060;4.228;2023-08-12T01:27:52;7.30;;;2.80;;
5014;SDS011;2526;51.060;4.228;2023-08-12T01:30:18;6.90;;;2.58;;
5014;SDS011;2526;51.060;4.228;2023-08-12T01:35:20;5.38;;;2.70;;
5014;SDS011;2526;51.060;4.228;2023-08-12T01:37:47;10.57;;;2.40;;
5014;SDS011;2526;51.060;4.228;2023-08-12T01:40:15;5.10;;;2.50;;
5014;SDS011;2526;51.060;4.228;2023-08-12T01:42:42;4.97;;;2.85;;
5014;SDS011;2526;51.060;4.228;2023-08-12T01:45:08;6.35;;;2.88;;
5014;SDS011;2526;51.060;4.228;2023-08-12T01:47:33;4.68;;;2.28;;
5014;SDS011;2526;51.060;4.228;2023-08-12T01:49:59;3.10;;;2.50;;
5014;SDS011;2526;51.060;4.228;2023-08-12T01:52:24;9.07;;;2.95;;
5014;SDS011;2526;51.060;4.228;2023-08-12T01:54:50;4.65;;;2.67;;
5014;SDS011;2526;51.060;4.228;2023-08-12T01:57:16;11.80;;;3.42;;
5014;SDS011;2526;51.060;4.228;2023-08-12T01:59:41;8.02;;;2.17;;
5014;SDS011;2526;51.060;4.228;2023-08-12T02:02:09;6.15;;;3.63;;
5014;SDS011;2526;51.060;4.228;2023-08-12T02:04:34;3.00;;;2.00;;
5014;SDS011;2526;51.060;4.228;2023-08-12T02:07:02;4.45;;;2.80;;
5014;SDS011;2526;51.060;4.228;2023-08-12T02:09:27;6.80;;;2.78;;
5014;SDS011;2526;51.060;4.228;2023-08-12T02:11:53;4.28;;;2.95;;
5014;SDS011;2526;51.060;4.228;2023-08-12T02:14:18;2.92;;;2.33;;
5014;SDS011;2526;51.060;4.228;2023-08-12T02:16:44;6.40;;;3.03;;
5014;SDS011;2526;51.060;4.228;2023-08-12T02:19:09;5.57;;;3.55;;
5014;SDS011;2526;51.060;4.228;2023-08-12T02:21:35;5.97;;;2.42;;
5014;SDS011;2526;51.060;4.228;2023-08-12T02:24:00;4.40;;;2.58;;
5014;SDS011;2526;51.060;4.228;2023-08-12T02:26:26;5.60;;;2.30;;
5014;SDS011;2526;51.060;4.228;2023-08-12T02:28:51;5.20;;;3.33;;
5014;SDS011;2526;51.060;4.228;2023-08-12T02:31:16;3.78;;;2.00;;
5014;SDS011;2526;51.060;4.228;2023-08-12T02:33:42;8.00;;;2.58;;
5014;SDS011;2526;51.060;4.228;2023-08-12T02:36:08;2.53;;;2.10;;
5014;SDS011;2526;51.060;4.228;2023-08-12T02:38:33;4.57;;;2.38;;
5014;SDS011;2526;51.060;4.228;2023-08-12T02:40:59;4.05;;;2.78;;
5014;SDS011;2526;51.060;4.228;2023-08-12T02:43:24;5.50;;;3.05;;
5014;SDS011;2526;51.060;4.228;2023-08-12T02:45:50;5.88;;;3.25;;
5014;SDS011;2526;51.060;4.228;2023-08-12T02:48:15;8.38;;;2.83;;
5014;SDS011;2526;51.060;4.228;2023-08-12T02:50:41;6.53;;;3.35;;
5014;SDS011;2526;51.060;4.228;2023-08-12T02:53:07;3.38;;;2.42;;
5014;SDS011;2526;51.060;4.228;2023-08-12T02:55:33;8.43;;;2.97;;
5014;SDS011;2526;51.060;4.228;2023-08-12T02:57:59;6.50;;;2.88;;
5014;SDS011;2526;51.060;4.228;2023-08-12T03:00:24;5.82;;;2.80;;
5014;SDS011;2526;51.060;4.228;2023-08-12T03:02:55;4.85;;;2.95;;
5014;SDS011;2526;51.060;4.228;2023-08-12T03:05:21;3.60;;;2.22;;
5014;SDS011;2526;51.060;4.228;2023-08-12T03:07:46;7.53;;;2.83;;
5014;SDS011;2526;51.060;4.228;2023-08-12T03:10:12;4.50;;;2.42;;
5014;SDS011;2526;51.060;4.228;2023-08-12T03:12:38;3.45;;;2.83;;
5014;SDS011;2526;51.060;4.228;2023-08-12T03:15:03;8.65;;;3.33;;
5014;SDS011;2526;51.060;4.228;2023-08-12T03:17:29;4.10;;;2.53;;
5014;SDS011;2526;51.060;4.228;2023-08-12T03:19:56;7.97;;;2.85;;
5014;SDS011;2526;51.060;4.228;2023-08-12T03:22:22;5.18;;;2.38;;
5014;SDS011;2526;51.060;4.228;2023-08-12T03:24:47;5.25;;;3.13;;
5014;SDS011;2526;51.060;4.228;2023-08-12T03:27:13;12.77;;;3.72;;
5014;SDS011;2526;51.060;4.228;2023-08-12T03:29:38;7.03;;;3.55;;
5014;SDS011;2526;51.060;4.228;2023-08-12T03:32:04;5.93;;;3.10;;
5014;SDS011;2526;51.060;4.228;2023-08-12T03:34:29;7.20;;;3.05;;
5014;SDS011;2526;51.060;4.228;2023-08-12T03:36:55;7.97;;;3.28;;
5014;SDS011;2526;51.060;4.228;2023-08-12T03:39:20;9.40;;;3.20;;
5014;SDS011;2526;51.060;4.228;2023-08-12T03:41:46;7.28;;;3.85;;
5014;SDS011;2526;51.060;4.228;2023-08-12T03:44:11;5.40;;;3.30;;
5014;SDS011;2526;51.060;4.228;2023-08-12T03:46:37;6.05;;;2.90;;
5014;SDS011;2526;51.060;4.228;2023-08-12T03:49:02;4.47;;;2.95;;
5014;SDS011;2526;51.060;4.228;2023-08-12T03:51:28;5.10;;;3.10;;
5014;SDS011;2526;51.060;4.228;2023-08-12T03:53:53;3.55;;;2.55;;
5014;SDS011;2526;51.060;4.228;2023-08-12T03:56:18;6.60;;;2.75;;
5014;SDS011;2526;51.060;4.228;2023-08-12T03:58:44;4.97;;;2.92;;
5014;SDS011;2526;51.060;4.228;2023-08-12T04:01:10;5.30;;;2.90;;
5014;SDS011;2526;51.060;4.228;2023-08-12T04:03:35;6.30;;;2.65;;
5014;SDS011;2526;51.060;4.228;2023-08-12T04:06:01;8.43;;;2.10;;
5014;SDS011;2526;51.060;4.228;2023-08-12T04:08:26;4.03;;;2.67;;
5014;SDS011;2526;51.060;4.228;2023-08-12T04:10:52;3.35;;;2.97;;
5014;SDS011;2526;51.060;4.228;2023-08-12T04:13:17;14.80;;;2.95;;
5014;SDS011;2526;51.060;4.228;2023-08-12T04:15:47;4.28;;;2.55;;
5014;SDS011;2526;51.060;4.228;2023-08-12T04:18:13;3.08;;;2.45;;
5014;SDS011;2526;51.060;4.228;2023-08-12T04:20:38;4.60;;;2.85;;
5014;SDS011;2526;51.060;4.228;2023-08-12T04:23:04;3.65;;;2.30;;
5014;SDS011;2526;51.060;4.228;2023-08-12T04:25:29;8.55;;;4.07;;
5014;SDS011;2526;51.060;4.228;2023-08-12T04:27:55;5.22;;;3.38;;
5014;SDS011;2526;51.060;4.228;2023-08-12T04:30:20;10.80;;;3.40;;
5014;SDS011;2526;51.060;4.228;2023-08-12T04:32:46;8.35;;;2.95;;
5014;SDS011;2526;51.060;4.228;2023-08-12T04:35:11;11.30;;;3.38;;
5014;SDS011;2526;51.060;4.228;2023-08-12T04:37:37;4.45;;;2.78;;
5014;SDS011;2526;51.060;4.228;2023-08-12T04:40:02;6.38;;;3.17;;
5014;SDS011;2526;51.060;4.228;2023-08-12T04:42:32;4.72;;;2.20;;
5014;SDS011;2526;51.060;4.228;2023-08-12T04:44:57;3.05;;;2.40;;
5014;SDS011;2526;51.060;4.228;2023-08-12T04:47:23;3.78;;;2.92;;
5014;SDS011;2526;51.060;4.228;2023-08-12T04:49:48;4.65;;;2.25;;
5014;SDS011;2526;51.060;4.228;2023-08-12T04:52:14;2.75;;;2.05;;
5014;SDS011;2526;51.060;4.228;2023-08-12T04:54:39;2.65;;;1.88;;
5014;SDS011;2526;51.060;4.228;2023-08-12T04:57:05;1.70;;;1.27;;
5014;SDS011;2526;51.060;4.228;2023-08-12T04:59:30;4.22;;;1.83;;
5014;SDS011;2526;51.060;4.228;2023-08-12T05:01:56;1.60;;;1.42;;
5014;SDS011;2526;51.060;4.228;2023-08-12T05:04:21;1.98;;;1.02;;
5014;SDS011;2526;51.060;4.228;2023-08-12T05:06:47;2.05;;;1.17;;
5014;SDS011;2526;51.060;4.228;2023-08-12T05:09:13;2.45;;;1.23;;
5014;SDS011;2526;51.060;4.228;2023-08-12T05:11:39;1.42;;;0.82;;
5014;SDS011;2526;51.060;4.228;2023-08-12T05:14:04;2.55;;;1.50;;
5014;SDS011;2526;51.060;4.228;2023-08-12T05:16:30;6.10;;;1.45;;
5014;SDS011;2526;51.060;4.228;2023-08-12T05:18:56;3.50;;;1.15;;
5014;SDS011;2526;51.060;4.228;2023-08-12T05:21:21;1.35;;;0.98;;
5014;SDS011;2526;51.060;4.228;2023-08-12T05:23:50;0.98;;;0.80;;
5014;SDS011;2526;51.060;4.228;2023-08-12T05:26:16;1.60;;;1.15;;
5014;SDS011;2526;51.060;4.228;2023-08-12T05:28:41;1.63;;;0.95;;
5014;SDS011;2526;51.060;4.228;2023-08-12T05:31:07;1.27;;;1.10;;
5014;SDS011;2526;51.060;4.228;2023-08-12T05:33:33;1.60;;;0.93;;
5014;SDS011;2526;51.060;4.228;2023-08-12T05:35:58;1.42;;;1.10;;
5014;SDS011;2526;51.060;4.228;2023-08-12T05:38:24;0.57;;;0.57;;
5014;SDS011;2526;51.060;4.228;2023-08-12T05:40:49;1.88;;;1.17;;
5014;SDS011;2526;51.060;4.228;2023-08-12T05:43:15;4.22;;;1.25;;
5014;SDS011;2526;51.060;4.228;2023-08-12T05:45:40;1.63;;;1.00;;
5014;SDS011;2526;51.060;4.228;2023-08-12T05:48:05;2.35;;;1.40;;
5014;SDS011;2526;51.060;4.228;2023-08-12T05:50:31;5.78;;;1.58;;
5014;SDS011;2526;51.060;4.228;2023-08-12T05:52:57;3.10;;;1.15;;
5014;SDS011;2526;51.060;4.228;2023-08-12T05:55:22;1.88;;;1.17;;
5014;SDS011;2526;51.060;4.228;2023-08-12T05:57:47;3.38;;;1.05;;
5014;SDS011;2526;51.060;4.228;2023-08-12T06:00:13;1.55;;;1.27;;
5014;SDS011;2526;51.060;4.228;2023-08-12T06:03:10;2.72;;;1.20;;
5014;SDS011;2526;51.060;4.228;2023-08-12T06:05:39;2.03;;;1.55;;
5014;SDS011;2526;51.060;4.228;2023-08-12T06:08:05;1.65;;;1.27;;
5014;SDS011;2526;51.060;4.228;2023-08-12T06:10:30;2.53;;;1.10;;
5014;SDS011;2526;51.060;4.228;2023-08-12T06:12:56;1.90;;;1.38;;
5014;SDS011;2526;51.060;4.228;2023-08-12T06:15:21;2.80;;;1.00;;
5014;SDS011;2526;51.060;4.228;2023-08-12T06:17:47;2.38;;;1.30;;
5014;SDS011;2526;51.060;4.228;2023-08-12T06:20:12;4.07;;;1.52;;
5014;SDS011;2526;51.060;4.228;2023-08-12T06:22:38;4.28;;;1.80;;
5014;SDS011;2526;51.060;4.228;2023-08-12T06:25:03;1.33;;;0.88;;
5014;SDS011;2526;51.060;4.228;2023-08-12T06:27:29;1.90;;;1.10;;
5014;SDS011;2526;51.060;4.228;2023-08-12T06:29:54;2.35;;;1.58;;
5014;SDS011;2526;51.060;4.228;2023-08-12T06:32:20;1.83;;;1.33;;
5014;SDS011;2526;51.060;4.228;2023-08-12T06:34:48;1.08;;;0.75;;
5014;SDS011;2526;51.060;4.228;2023-08-12T06:37:14;1.45;;;1.08;;
5014;SDS011;2526;51.060;4.228;2023-08-12T06:39:39;2.78;;;0.70;;
5014;SDS011;2526;51.060;4.228;2023-08-12T06:42:05;1.08;;;0.73;;
5014;SDS011;2526;51.060;4.228;2023-08-12T06:44:30;1.30;;;0.75;;
5014;SDS011;2526;51.060;4.228;2023-08-12T06:46:56;2.03;;;0.82;;
5014;SDS011;2526;51.060;4.228;2023-08-12T06:49:21;2.00;;;0.90;;
5014;SDS011;2526;51.060;4.228;2023-08-12T06:51:46;1.58;;;0.88;;
5014;SDS011;2526;51.060;4.228;2023-08-12T06:54:12;2.03;;;0.70;;
5014;SDS011;2526;51.060;4.228;2023-08-12T06:56:37;0.98;;;0.65;;
5014;SDS011;2526;51.060;4.228;2023-08-12T06:59:03;0.40;;;0.40;;
5014;SDS011;2526;51.060;4.228;2023-08-12T07:01:28;2.22;;;0.63;;
5014;SDS011;2526;51.060;4.228;2023-08-12T07:03:54;2.08;;;1.13;;
5014;SDS011;2526;51.060;4.228;2023-08-12T07:06:19;1.35;;;0.70;;
5014;SDS011;2526;51.060;4.228;2023-08-12T07:08:45;5.40;;;0.95;;
5014;SDS011;2526;51.060;4.228;2023-08-12T07:11:10;3.15;;;1.23;;
5014;SDS011;2526;51.060;4.228;2023-08-12T07:13:36;1.48;;;1.10;;
5014;SDS011;2526;51.060;4.228;2023-08-12T07:16:01;6.95;;;1.27;;
5014;SDS011;2526;51.060;4.228;2023-08-12T07:18:27;1.38;;;1.20;;
5014;SDS011;2526;51.060;4.228;2023-08-12T07:20:52;2.78;;;1.30;;
5014;SDS011;2526;51.060;4.228;2023-08-12T07:23:18;4.80;;;2.00;;
5014;SDS011;2526;51.060;4.228;2023-08-12T07:25:45;5.40;;;2.65;;
5014;SDS011;2526;51.060;4.228;2023-08-12T07:28:10;12.95;;;3.22;;
5014;SDS011;2526;51.060;4.228;2023-08-12T07:30:36;11.13;;;2.58;;
5014;SDS011;2526;51.060;4.228;2023-08-12T07:33:01;6.05;;;2.42;;
5014;SDS011;2526;51.060;4.228;2023-08-12T07:35:27;5.60;;;2.20;;
5014;SDS011;2526;51.060;4.228;2023-08-12T07:37:52;7.95;;;2.35;;
5014;SDS011;2526;51.060;4.228;2023-08-12T07:40:18;3.30;;;2.45;;
5014;SDS011;2526;51.060;4.228;2023-08-12T07:42:43;5.47;;;2.50;;
5014;SDS011;2526;51.060;4.228;2023-08-12T07:45:09;3.63;;;2.20;;
5014;SDS011;2526;51.060;4.228;2023-08-12T07:47:34;5.88;;;2.10;;
5014;SDS011;2526;51.060;4.228;2023-08-12T07:50:00;8.00;;;2.67;;
5014;SDS011;2526;51.060;4.228;2023-08-12T07:52:25;4.10;;;3.03;;
5014;SDS011;2526;51.060;4.228;2023-08-12T07:54:51;6.13;;;3.05;;
5014;SDS011;2526;51.060;4.228;2023-08-12T07:57:16;3.90;;;2.05;;
5014;SDS011;2526;51.060;4.228;2023-08-12T07:59:42;3.28;;;2.25;;
5014;SDS011;2526;51.060;4.228;2023-08-12T08:02:07;7.20;;;2.28;;
5014;SDS011;2526;51.060;4.228;2023-08-12T08:04:34;3.78;;;2.95;;
5014;SDS011;2526;51.060;4.228;2023-08-12T08:07:00;6.25;;;2.20;;
5014;SDS011;2526;51.060;4.228;2023-08-12T08:09:25;7.05;;;3.13;;
5014;SDS011;2526;51.060;4.228;2023-08-12T08:11:51;2.95;;;2.10;;
5014;SDS011;2526;51.060;4.228;2023-08-12T08:14:17;5.53;;;2.20;;
5014;SDS011;2526;51.060;4.228;2023-08-12T08:16:42;3.17;;;2.50;;
5014;SDS011;2526;51.060;4.228;2023-08-12T08:19:07;2.55;;;2.10;;
5014;SDS011;2526;51.060;4.228;2023-08-12T08:21:35;6.95;;;1.85;;
5014;SDS011;2526;51.060;4.228;2023-08-12T08:24:00;6.78;;;1.63;;
5014;SDS011;2526;51.060;4.228;2023-08-12T08:26:26;2.42;;;1.50;;
5014;SDS011;2526;51.060;4.228;2023-08-12T08:28:52;2.35;;;2.15;;
5014;SDS011;2526;51.060;4.228;2023-08-12T08:31:17;4.10;;;1.98;;
5014;SDS011;2526;51.060;4.228;2023-08-12T08:33:43;7.95;;;2.53;;
5014;SDS011;2526;51.060;4.228;2023-08-12T08:36:08;8.13;;;2.47;;
5014;SDS011;2526;51.060;4.228;2023-08-12T08:38:34;3.70;;;1.65;;
5014;SDS011;2526;51.060;4.228;2023-08-12T08:40:59;4.47;;;2.20;;
5014;SDS011;2526;51.060;4.228;2023-08-12T08:43:26;2.17;;;1.95;;
5014;SDS011;2526;51.060;4.228;2023-08-12T08:45:52;4.53;;;2.42;;
5014;SDS011;2526;51.060;4.228;2023-08-12T08:48:19;4.25;;;2.40;;
5014;SDS011;2526;51.060;4.228;2023-08-12T08:50:44;3.10;;;1.70;;
5014;SDS011;2526;51.060;4.228;2023-08-12T08:53:11;10.32;;;2.80;;
5014;SDS011;2526;51.060;4.228;2023-08-12T08:55:39;5.35;;;1.63;;
5014;SDS011;2526;51.060;4.228;2023-08-12T08:58:05;5.78;;;1.95;;
5014;SDS011;2526;51.060;4.228;2023-08-12T09:00:31;4.57;;;1.80;;
5014;SDS011;2526;51.060;4.228;2023-08-12T09:02:57;2.25;;;1.80;;
5014;SDS011;2526;51.060;4.228;2023-08-12T09:05:22;3.80;;;1.45;;
5014;SDS011;2526;51.060;4.228;2023-08-12T09:07:48;4.43;;;1.45;;
5014;SDS011;2526;51.060;4.228;2023-08-12T09:10:15;4.35;;;1.70;;
5014;SDS011;2526;51.060;4.228;2023-08-12T09:12:42;3.58;;;1.67;;
5014;SDS011;2526;51.060;4.228;2023-08-12T09:15:08;1.42;;;0.80;;
5014;SDS011;2526;51.060;4.228;2023-08-12T09:17:34;3.45;;;1.27;;
5014;SDS011;2526;51.060;4.228;2023-08-12T09:20:00;2.50;;;0.85;;
5014;SDS011;2526;51.060;4.228;2023-08-12T09:22:26;2.47;;;0.90;;
5014;SDS011;2526;51.060;4.228;2023-08-12T09:24:57;0.65;;;0.60;;
5014;SDS011;2526;51.060;4.228;2023-08-12T09:27:23;1.63;;;0.85;;
5014;SDS011;2526;51.060;4.228;2023-08-12T09:29:48;3.92;;;1.13;;
5014;SDS011;2526;51.060;4.228;2023-08-12T09:32:23;5.70;;;1.02;;
5014;SDS011;2526;51.060;4.228;2023-08-12T09:34:52;2.92;;;0.93;;
5014;SDS011;2526;51.060;4.228;2023-08-12T09:37:18;3.03;;;0.50;;
5014;SDS011;2526;51.060;4.228;2023-08-12T09:39:48;3.97;;;1.30;;
5014;SDS011;2526;51.060;4.228;2023-08-12T09:42:14;2.45;;;0.90;;
5014;SDS011;2526;51.060;4.228;2023-08-12T09:44:40;1.10;;;0.73;;
5014;SDS011;2526;51.060;4.228;2023-08-12T09:47:06;8.45;;;1.27;;
5014;SDS011;2526;51.060;4.228;2023-08-12T09:49:33;1.67;;;0.93;;
5014;SDS011;2526;51.060;4.228;2023-08-12T09:51:59;3.63;;;1.08;;
5014;SDS011;2526;51.060;4.228;2023-08-12T09:54:28;3.80;;;1.35;;
5014;SDS011;2526;51.060;4.228;2023-08-12T09:56:57;1.80;;;0.98;;
5014;SDS011;2526;51.060;4.228;2023-08-12T09:59:24;2.70;;;1.70;;
5014;SDS011;2526;51.060;4.228;2023-08-12T10:01:49;1.45;;;0.77;;
5014;SDS011;2526;51.060;4.228;2023-08-12T10:04:18;3.83;;;1.23;;
5014;SDS011;2526;51.060;4.228;2023-08-12T10:06:46;4.75;;;1.08;;
5014;SDS011;2526;51.060;4.228;2023-08-12T10:09:13;3.03;;;1.10;;
5014;SDS011;2526;51.060;4.228;2023-08-12T10:11:40;3.15;;;1.13;;
5014;SDS011;2526;51.060;4.228;2023-08-12T10:14:06;4.65;;;1.10;;
5014;SDS011;2526;51.060;4.228;2023-08-12T10:16:33;8.50;;;1.08;;
5014;SDS011;2526;51.060;4.228;2023-08-12T10:19:00;3.75;;;0.60;;
5014;SDS011;2526;51.060;4.228;2023-08-12T10:21:26;3.35;;;1.02;;
5014;SDS011;2526;51.060;4.228;2023-08-12T10:23:53;3.85;;;1.30;;
5014;SDS011;2526;51.060;4.228;2023-08-12T10:26:19;6.40;;;1.05;;
5014;SDS011;2526;51.060;4.228;2023-08-12T10:28:44;1.98;;;0.90;;
5014;SDS011;2526;51.060;4.228;2023-08-12T10:31:11;3.67;;;1.08;;
5014;SDS011;2526;51.060;4.228;2023-08-12T10:33:37;3.55;;;0.75;;
5014;SDS011;2526;51.060;4.228;2023-08-12T10:36:03;5.32;;;1.02;;
5014;SDS011;2526;51.060;4.228;2023-08-12T10:38:28;2.72;;;0.95;;
5014;SDS011;2526;51.060;4.228;2023-08-12T10:41:01;3.30;;;1.25;;
5014;SDS011;2526;51.060;4.228;2023-08-12T10:43:49;1.52;;;1.05;;
5014;SDS011;2526;51.060;4.228;2023-08-12T10:46:21;2.20;;;1.10;;
5014;SDS011;2526;51.060;4.228;2023-08-12T10:48:55;7.63;;;1.20;;
5014;SDS011;2526;51.060;4.228;2023-08-12T10:51:38;2.90;;;1.30;;
5014;SDS011;2526;51.060;4.228;2023-08-12T10:54:25;3.38;;;0.82;;
5014;SDS011;2526;51.060;4.228;2023-08-12T11:04:37;2.35;;;0.68;;
5014;SDS011;2526;51.060;4.228;2023-08-12T11:07:14;4.32;;;1.17;;
5014;SDS011;2526;51.060;4.228;2023-08-12T11:09:39;1.05;;;0.70;;
5014;SDS011;2526;51.060;4.228;2023-08-12T11:12:05;4.75;;;0.57;;
5014;SDS011;2526;51.060;4.228;2023-08-12T11:14:30;0.85;;;0.45;;
5014;SDS011;2526;51.060;4.228;2023-08-12T11:16:56;6.72;;;1.08;;
5014;SDS011;2526;51.060;4.228;2023-08-12T11:19:24;1.83;;;0.80;;
5014;SDS011;2526;51.060;4.228;2023-08-12T11:21:55;3.17;;;0.70;;
5014;SDS011;2526;51.060;4.228;2023-08-12T11:24:22;2.08;;;0.73;;
5014;SDS011;2526;51.060;4.228;2023-08-12T11:26:47;1.85;;;0.57;;
5014;SDS011;2526;51.060;4.228;2023-08-12T11:29:13;2.95;;;0.80;;
5014;SDS011;2526;51.060;4.228;2023-08-12T11:31:41;11.63;;;1.67;;
5014;SDS011;2526;51.060;4.228;2023-08-12T11:34:06;0.95;;;0.40;;
5014;SDS011;2526;51.060;4.228;2023-08-12T11:36:32;3.28;;;1.23;;
5014;SDS011;2526;51.060;4.228;2023-08-12T11:38:58;3.30;;;1.02;;
5014;SDS011;2526;51.060;4.228;2023-08-12T11:41:23;0.77;;;0.50;;
5014;SDS011;2526;51.060;4.228;2023-08-12T11:43:49;7.38;;;0.93;;
5014;SDS011;2526;51.060;4.228;2023-08-12T11:46:15;8.48;;;1.05;;
5014;SDS011;2526;51.060;4.228;2023-08-12T11:48:43;1.35;;;0.77;;
5014;SDS011;2526;51.060;4.228;2023-08-12T11:51:08;2.10;;;0.55;;
5014;SDS011;2526;51.060;4.228;2023-08-12T11:53:34;4.22;;;0.68;;
5014;SDS011;2526;51.060;4.228;2023-08-12T11:55:59;1.45;;;0.70;;
5014;SDS011;2526;51.060;4.228;2023-08-12T11:58:25;1.63;;;0.68;;
5014;SDS011;2526;51.060;4.228;2023-08-12T12:00:50;3.55;;;0.98;;
5014;SDS011;2526;51.060;4.228;2023-08-12T12:03:27;3.22;;;1.10;;
5014;SDS011;2526;51.060;4.228;2023-08-12T12:05:55;2.95;;;0.98;;
5014;SDS011;2526;51.060;4.228;2023-08-12T12:08:20;2.40;;;0.60;;
5014;SDS011;2526;51.060;4.228;2023-08-12T12:10:46;6.47;;;0.82;;
5014;SDS011;2526;51.060;4.228;2023-08-12T12:13:12;4.25;;;1.13;;
5014;SDS011;2526;51.060;4.228;2023-08-12T12:15:43;2.72;;;0.68;;
5014;SDS011;2526;51.060;4.228;2023-08-12T12:18:12;0.77;;;0.57;;
5014;SDS011;2526;51.060;4.228;2023-08-12T12:20:53;14.00;;;1.00;;
5014;SDS011;2526;51.060;4.228;2023-08-12T12:23:19;4.13;;;0.82;;
5014;SDS011;2526;51.060;4.228;2023-08-12T12:25:45;6.22;;;0.85;;
5014;SDS011;2526;51.060;4.228;2023-08-12T12:28:11;1.75;;;0.70;;
5014;SDS011;2526;51.060;4.228;2023-08-12T12:30:36;1.15;;;0.65;;
5014;SDS011;2526;51.060;4.228;2023-08-12T12:33:02;4.63;;;0.85;;
5014;SDS011;2526;51.060;4.228;2023-08-12T12:35:27;6.75;;;0.65;;
5014;SDS011;2526;51.060;4.228;2023-08-12T12:37:53;2.80;;;1.05;;
5014;SDS011;2526;51.060;4.228;2023-08-12T12:40:18;10.07;;;0.73;;
5014;SDS011;2526;51.060;4.228;2023-08-12T12:42:44;5.35;;;1.10;;
5014;SDS011;2526;51.060;4.228;2023-08-12T12:45:09;3.67;;;0.75;;
5014;SDS011;2526;51.060;4.228;2023-08-12T12:47:35;2.13;;;1.00;;
5014;SDS011;2526;51.060;4.228;2023-08-12T12:50:00;1.23;;;0.60;;
5014;SDS011;2526;51.060;4.228;2023-08-12T12:52:26;2.05;;;0.80;;
5014;SDS011;2526;51.060;4.228;2023-08-12T12:54:51;2.42;;;1.05;;
5014;SDS011;2526;51.060;4.228;2023-08-12T12:57:17;1.63;;;0.95;;
5014;SDS011;2526;51.060;4.228;2023-08-12T12:59:42;1.92;;;0.70;;
5014;SDS011;2526;51.060;4.228;2023-08-12T13:02:08;4.45;;;1.30;;
5014;SDS011;2526;51.060;4.228;2023-08-12T13:04:33;5.43;;;0.88;;
5014;SDS011;2526;51.060;4.228;2023-08-12T13:06:59;4.38;;;1.10;;
5014;SDS011;2526;51.060;4.228;2023-08-12T13:09:26;1.92;;;0.68;;
5014;SDS011;2526;51.060;4.228;2023-08-12T13:11:51;2.60;;;0.73;;
5014;SDS011;2526;51.060;4.228;2023-08-12T13:14:18;2.92;;;1.00;;
5014;SDS011;2526;51.060;4.228;2023-08-12T13:16:56;5.15;;;0.50;;
5014;SDS011;2526;51.060;4.228;2023-08-12T13:19:23;1.73;;;0.73;;
5014;SDS011;2526;51.060;4.228;2023-08-12T13:21:48;1.63;;;0.70;;
5014;SDS011;2526;51.060;4.228;2023-08-12T13:24:14;0.70;;;0.50;;
5014;SDS011;2526;51.060;4.228;2023-08-12T13:26:40;5.28;;;0.95;;
5014;SDS011;2526;51.060;4.228;2023-08-12T13:29:06;1.80;;;0.50;;
5014;SDS011;2526;51.060;4.228;2023-08-12T13:31:31;6.50;;;0.90;;
5014;SDS011;2526;51.060;4.228;2023-08-12T13:33:57;6.65;;;0.50;;
5014;SDS011;2526;51.060;4.228;2023-08-12T13:36:22;2.63;;;0.70;;
5014;SDS011;2526;51.060;4.228;2023-08-12T13:38:49;2.90;;;0.98;;
5014;SDS011;2526;51.060;4.228;2023-08-12T13:41:14;8.18;;;1.70;;
5014;SDS011;2526;51.060;4.228;2023-08-12T13:43:41;4.53;;;1.15;;
5014;SDS011;2526;51.060;4.228;2023-08-12T13:46:06;1.90;;;0.75;;
5014;SDS011;2526;51.060;4.228;2023-08-12T13:48:32;3.33;;;0.90;;
5014;SDS011;2526;51.060;4.228;2023-08-12T13:50:57;2.33;;;0.68;;
5014;SDS011;2526;51.060;4.228;2023-08-12T13:53:23;1.17;;;0.57;;
5014;SDS011;2526;51.060;4.228;2023-08-12T13:55:49;2.38;;;0.85;;
5014;SDS011;2526;51.060;4.228;2023-08-12T13:58:15;2.35;;;0.80;;
5014;SDS011;2526;51.060;4.228;2023-08-12T14:00:40;1.40;;;0.60;;
5014;SDS011;2526;51.060;4.228;2023-08-12T14:03:06;2.03;;;1.02;;
5014;SDS011;2526;51.060;4.228;2023-08-12T14:05:31;1.10;;;0.75;;
5014;SDS011;2526;51.060;4.228;2023-08-12T14:07:56;5.53;;;1.15;;
5014;SDS011;2526;51.060;4.228;2023-08-12T14:10:22;6.88;;;1.30;;
5014;SDS011;2526;51.060;4.228;2023-08-12T14:12:47;2.17;;;0.82;;
5014;SDS011;2526;51.060;4.228;2023-08-12T14:15:14;5.95;;;1.52;;
5014;SDS011;2526;51.060;4.228;2023-08-12T14:17:39;7.82;;;1.13;;
5014;SDS011;2526;51.060;4.228;2023-08-12T14:20:05;2.75;;;0.52;;
5014;SDS011;2526;51.060;4.228;2023-08-12T14:22:35;5.30;;;1.13;;
5014;SDS011;2526;51.060;4.228;2023-08-12T14:25:01;15.75;;;1.50;;
5014;SDS011;2526;51.060;4.228;2023-08-12T14:27:29;0.73;;;0.60;;
5014;SDS011;2526;51.060;4.228;2023-08-12T14:29:54;1.17;;;0.65;;
5014;SDS011;2526;51.060;4.228;2023-08-12T14:32:19;4.72;;;0.95;;
5014;SDS011;2526;51.060;4.228;2023-08-12T14:34:45;1.00;;;0.70;;
5014;SDS011;2526;51.060;4.228;2023-08-12T14:37:11;3.30;;;0.75;;
5014;SDS011;2526;51.060;4.228;2023-08-12T14:39:37;2.70;;;1.42;;
5014;SDS011;2526;51.060;4.228;2023-08-12T14:42:02;2.55;;;1.20;;
5014;SDS011;2526;51.060;4.228;2023-08-12T14:44:29;7.88;;;0.90;;
5014;SDS011;2526;51.060;4.228;2023-08-12T14:46:58;5.93;;;1.40;;
5014;SDS011;2526;51.060;4.228;2023-08-12T14:49:24;2.75;;;1.17;;
5014;SDS011;2526;51.060;4.228;2023-08-12T14:51:50;1.70;;;0.77;;
5014;SDS011;2526;51.060;4.228;2023-08-12T14:54:15;3.15;;;1.52;;
5014;SDS011;2526;51.060;4.228;2023-08-12T14:56:40;6.32;;;0.73;;
5014;SDS011;2526;51.060;4.228;2023-08-12T14:59:06;1.23;;;0.88;;
5014;SDS011;2526;51.060;4.228;2023-08-12T15:01:32;1.75;;;0.68;;
5014;SDS011;2526;51.060;4.228;2023-08-12T15:03:57;4.90;;;1.25;;
5014;SDS011;2526;51.060;4.228;2023-08-12T15:06:23;3.50;;;1.15;;
5014;SDS011;2526;51.060;4.228;2023-08-12T15:08:49;5.85;;;0.95;;
5014;SDS011;2526;51.060;4.228;2023-08-12T15:11:14;3.50;;;1.52;;
5014;SDS011;2526;51.060;4.228;2023-08-12T15:13:40;3.05;;;1.13;;
5014;SDS011;2526;51.060;4.228;2023-08-12T15:16:05;7.07;;;1.55;;
5014;SDS011;2526;51.060;4.228;2023-08-12T15:18:30;2.17;;;0.85;;
5014;SDS011;2526;51.060;4.228;2023-08-12T15:20:56;4.90;;;0.80;;
5014;SDS011;2526;51.060;4.228;2023-08-12T15:23:22;4.93;;;1.13;;